sensor_id;sensor_type;location;lat;lon;timestamp;temperature;humidity
74968;SHT30;63523;51.880;12.630;2023-08-06T00:01:37;17.53;77.03
74968;SHT30;63523;51.880;12.630;2023-08-06T00:04:02;17.52;76.82
74968;SHT30;63523;51.880;12.630;2023-08-06T00:06:28;17.55;76.48
74968;SHT30;63523;51.880;12.630;2023-08-06T00:08:53;17.53;76.19
74968;SHT30;63523;51.880;12.630;2023-08-06T00:11:20;17.59;76.13
74968;SHT30;63523;51.880;12.630;2023-08-06T00:13:45;17.65;76.13
74968;SHT30;63523;51.880;12.630;2023-08-06T00:16:11;17.67;75.91
74968;SHT30;63523;51.880;12.630;2023-08-06T00:18:37;17.70;75.89
74968;SHT30;63523;51.880;12.630;2023-08-06T00:21:02;17.70;75.95
74968;SHT30;63523;51.880;12.630;2023-08-06T00:23:28;17.74;75.72
74968;SHT30;63523;51.880;12.630;2023-08-06T00:25:53;17.74;75.88
74968;SHT30;63523;51.880;12.630;2023-08-06T00:28:18;17.74;75.94
74968;SHT30;63523;51.880;12.630;2023-08-06T00:30:44;17.74;76.00
74968;SHT30;63523;51.880;12.630;2023-08-06T00:33:09;17.70;75.98
74968;SHT30;63523;51.880;12.630;2023-08-06T00:35:34;17.69;76.03
74968;SHT30;63523;51.880;12.630;2023-08-06T00:38:00;17.66;76.24
74968;SHT30;63523;51.880;12.630;2023-08-06T00:40:25;17.67;76.44
74968;SHT30;63523;51.880;12.630;2023-08-06T00:42:50;17.67;76.65
74968;SHT30;63523;51.880;12.630;2023-08-06T00:45:16;17.69;76.64
74968;SHT30;63523;51.880;12.630;2023-08-06T00:47:41;17.66;76.64
74968;SHT30;63523;51.880;12.630;2023-08-06T00:50:07;17.65;76.74
74968;SHT30;63523;51.880;12.630;2023-08-06T00:52:34;17.66;76.75
74968;SHT30;63523;51.880;12.630;2023-08-06T00:54:59;17.65;76.71
74968;SHT30;63523;51.880;12.630;2023-08-06T00:57:25;17.66;76.75
74968;SHT30;63523;51.880;12.630;2023-08-06T00:59:54;17.66;76.71
74968;SHT30;63523;51.880;12.630;2023-08-06T01:02:19;17.66;76.82
74968;SHT30;63523;51.880;12.630;2023-08-06T01:04:44;17.61;77.02
74968;SHT30;63523;51.880;12.630;2023-08-06T01:09:57;17.62;77.14
74968;SHT30;63523;51.880;12.630;2023-08-06T01:17:31;17.53;77.58
74968;SHT30;63523;51.880;12.630;2023-08-06T01:19:57;17.49;77.70
74968;SHT30;63523;51.880;12.630;2023-08-06T01:22:22;17.50;77.69
74968;SHT30;63523;51.880;12.630;2023-08-06T01:24:48;17.49;77.67
74968;SHT30;63523;51.880;12.630;2023-08-06T01:27:20;17.47;77.78
74968;SHT30;63523;51.880;12.630;2023-08-06T01:29:57;17.47;77.65
74968;SHT30;63523;51.880;12.630;2023-08-06T01:32:24;17.47;77.72
74968;SHT30;63523;51.880;12.630;2023-08-06T01:34:51;17.50;77.61
74968;SHT30;63523;51.880;12.630;2023-08-06T01:37:18;17.47;77.66
74968;SHT30;63523;51.880;12.630;2023-08-06T01:39:43;17.46;77.81
74968;SHT30;63523;51.880;12.630;2023-08-06T01:42:09;17.45;77.88
74968;SHT30;63523;51.880;12.630;2023-08-06T01:44:34;17.42;78.00
74968;SHT30;63523;51.880;12.630;2023-08-06T01:46:59;17.39;78.13
74968;SHT30;63523;51.880;12.630;2023-08-06T01:49:24;17.38;78.36
74968;SHT30;63523;51.880;12.630;2023-08-06T01:51:50;17.40;78.14
74968;SHT30;63523;51.880;12.630;2023-08-06T01:54:15;17.42;78.26
74968;SHT30;63523;51.880;12.630;2023-08-06T01:56:40;17.38;78.40
74968;SHT30;63523;51.880;12.630;2023-08-06T01:59:06;17.36;78.73
74968;SHT30;63523;51.880;12.630;2023-08-06T02:01:31;17.31;78.95
74968;SHT30;63523;51.880;12.630;2023-08-06T02:03:56;17.29;79.04
74968;SHT30;63523;51.880;12.630;2023-08-06T02:06:22;17.31;79.03
74968;SHT30;63523;51.880;12.630;2023-08-06T02:08:47;17.31;79.15
74968;SHT30;63523;51.880;12.630;2023-08-06T02:11:12;17.28;79.28
74968;SHT30;63523;51.880;12.630;2023-08-06T02:13:38;17.31;79.31
74968;SHT30;63523;51.880;12.630;2023-08-06T02:16:03;17.29;79.35
74968;SHT30;63523;51.880;12.630;2023-08-06T02:18:28;17.35;79.15
74968;SHT30;63523;51.880;12.630;2023-08-06T02:21:00;17.45;78.97
74968;SHT30;63523;51.880;12.630;2023-08-06T02:23:26;17.38;79.16
74968;SHT30;63523;51.880;12.630;2023-08-06T02:26:01;17.34;79.60
74968;SHT30;63523;51.880;12.630;2023-08-06T02:28:27;17.29;79.70
74968;SHT30;63523;51.880;12.630;2023-08-06T02:30:53;17.35;79.72
74968;SHT30;63523;51.880;12.630;2023-08-06T02:33:18;17.34;79.89
74968;SHT30;63523;51.880;12.630;2023-08-06T02:35:43;17.31;79.99
74968;SHT30;63523;51.880;12.630;2023-08-06T02:38:09;17.32;80.33
74968;SHT30;63523;51.880;12.630;2023-08-06T02:40:34;17.29;80.38
74968;SHT30;63523;51.880;12.630;2023-08-06T02:42:59;17.29;80.49
74968;SHT30;63523;51.880;12.630;2023-08-06T02:45:24;17.28;80.61
74968;SHT30;63523;51.880;12.630;2023-08-06T02:47:50;17.25;80.66
74968;SHT30;63523;51.880;12.630;2023-08-06T02:50:15;17.28;80.67
74968;SHT30;63523;51.880;12.630;2023-08-06T02:52:40;17.27;80.65
74968;SHT30;63523;51.880;12.630;2023-08-06T02:55:06;17.31;80.61
74968;SHT30;63523;51.880;12.630;2023-08-06T02:57:32;17.32;80.56
74968;SHT30;63523;51.880;12.630;2023-08-06T02:59:57;17.31;80.60
74968;SHT30;63523;51.880;12.630;2023-08-06T03:02:22;17.31;80.62
74968;SHT30;63523;51.880;12.630;2023-08-06T03:04:48;17.32;80.62
74968;SHT30;63523;51.880;12.630;2023-08-06T03:07:13;17.35;80.62
74968;SHT30;63523;51.880;12.630;2023-08-06T03:09:38;17.53;79.80
74968;SHT30;63523;51.880;12.630;2023-08-06T03:12:04;17.55;79.55
74968;SHT30;63523;51.880;12.630;2023-08-06T03:14:30;17.62;79.29
74968;SHT30;63523;51.880;12.630;2023-08-06T03:16:55;17.63;79.19
74968;SHT30;63523;51.880;12.630;2023-08-06T03:19:20;17.59;78.99
74968;SHT30;63523;51.880;12.630;2023-08-06T03:21:46;17.46;79.74
74968;SHT30;63523;51.880;12.630;2023-08-06T03:24:13;17.45;79.75
74968;SHT30;63523;51.880;12.630;2023-08-06T03:26:38;17.36;80.12
74968;SHT30;63523;51.880;12.630;2023-08-06T03:29:04;17.31;80.62
74968;SHT30;63523;51.880;12.630;2023-08-06T03:31:29;17.25;80.95
74968;SHT30;63523;51.880;12.630;2023-08-06T03:33:54;17.21;81.16
74968;SHT30;63523;51.880;12.630;2023-08-06T03:36:20;17.19;81.23
74968;SHT30;63523;51.880;12.630;2023-08-06T03:38:45;17.28;80.93
74968;SHT30;63523;51.880;12.630;2023-08-06T03:41:10;17.25;80.87
74968;SHT30;63523;51.880;12.630;2023-08-06T03:43:36;17.25;81.02
74968;SHT30;63523;51.880;12.630;2023-08-06T03:46:01;17.22;80.94
74968;SHT30;63523;51.880;12.630;2023-08-06T03:48:26;17.31;80.74
74968;SHT30;63523;51.880;12.630;2023-08-06T03:50:51;17.27;80.90
74968;SHT30;63523;51.880;12.630;2023-08-06T03:53:17;17.25;80.84
74968;SHT30;63523;51.880;12.630;2023-08-06T03:55:42;17.25;81.05
74968;SHT30;63523;51.880;12.630;2023-08-06T03:58:07;17.25;80.81
74968;SHT30;63523;51.880;12.630;2023-08-06T04:00:33;17.32;80.62
74968;SHT30;63523;51.880;12.630;2023-08-06T04:02:58;17.29;80.67
74968;SHT30;63523;51.880;12.630;2023-08-06T04:05:23;17.24;80.86
74968;SHT30;63523;51.880;12.630;2023-08-06T04:07:49;17.22;80.83
74968;SHT30;63523;51.880;12.630;2023-08-06T04:10:14;17.18;81.11
74968;SHT30;63523;51.880;12.630;2023-08-06T04:12:40;17.18;81.11
74968;SHT30;63523;51.880;12.630;2023-08-06T04:15:06;17.14;81.25
74968;SHT30;63523;51.880;12.630;2023-08-06T04:17:31;17.15;81.04
74968;SHT30;63523;51.880;12.630;2023-08-06T04:19:56;17.07;81.39
74968;SHT30;63523;51.880;12.630;2023-08-06T04:22:24;17.04;81.63
74968;SHT30;63523;51.880;12.630;2023-08-06T04:24:50;17.00;81.93
74968;SHT30;63523;51.880;12.630;2023-08-06T04:27:17;17.01;81.88
74968;SHT30;63523;51.880;12.630;2023-08-06T04:29:43;17.00;81.91
74968;SHT30;63523;51.880;12.630;2023-08-06T04:32:09;17.00;81.80
74968;SHT30;63523;51.880;12.630;2023-08-06T04:34:35;17.00;81.71
74968;SHT30;63523;51.880;12.630;2023-08-06T04:37:01;17.06;81.76
74968;SHT30;63523;51.880;12.630;2023-08-06T04:39:27;17.07;81.82
74968;SHT30;63523;51.880;12.630;2023-08-06T04:41:53;17.10;81.60
74968;SHT30;63523;51.880;12.630;2023-08-06T04:44:18;17.11;81.65
74968;SHT30;63523;51.880;12.630;2023-08-06T04:46:43;17.15;81.42
74968;SHT30;63523;51.880;12.630;2023-08-06T04:49:09;17.31;80.96
74968;SHT30;63523;51.880;12.630;2023-08-06T04:51:34;17.31;80.67
74968;SHT30;63523;51.880;12.630;2023-08-06T04:54:00;17.22;81.00
74968;SHT30;63523;51.880;12.630;2023-08-06T04:56:25;17.28;80.62
74968;SHT30;63523;51.880;12.630;2023-08-06T04:58:51;17.27;80.73
74968;SHT30;63523;51.880;12.630;2023-08-06T05:01:16;17.31;80.69
74968;SHT30;63523;51.880;12.630;2023-08-06T05:03:42;17.29;80.87
74968;SHT30;63523;51.880;12.630;2023-08-06T05:06:07;17.25;80.91
74968;SHT30;63523;51.880;12.630;2023-08-06T05:08:32;17.21;81.16
74968;SHT30;63523;51.880;12.630;2023-08-06T05:10:58;17.21;81.17
74968;SHT30;63523;51.880;12.630;2023-08-06T05:13:23;17.17;81.23
74968;SHT30;63523;51.880;12.630;2023-08-06T05:15:49;17.17;81.47
74968;SHT30;63523;51.880;12.630;2023-08-06T05:18:14;17.21;81.11
74968;SHT30;63523;51.880;12.630;2023-08-06T05:20:40;17.17;81.18
74968;SHT30;63523;51.880;12.630;2023-08-06T05:23:06;17.17;81.28
74968;SHT30;63523;51.880;12.630;2023-08-06T05:25:31;17.15;81.37
74968;SHT30;63523;51.880;12.630;2023-08-06T05:27:57;17.12;81.57
74968;SHT30;63523;51.880;12.630;2023-08-06T05:30:22;17.15;81.61
74968;SHT30;63523;51.880;12.630;2023-08-06T05:32:47;17.18;81.35
74968;SHT30;63523;51.880;12.630;2023-08-06T05:35:13;17.18;81.23
74968;SHT30;63523;51.880;12.630;2023-08-06T05:37:38;17.18;81.24
74968;SHT30;63523;51.880;12.630;2023-08-06T05:40:04;17.34;80.79
74968;SHT30;63523;51.880;12.630;2023-08-06T05:42:29;17.35;80.66
74968;SHT30;63523;51.880;12.630;2023-08-06T05:44:54;17.31;80.88
74968;SHT30;63523;51.880;12.630;2023-08-06T05:47:20;17.24;80.99
74968;SHT30;63523;51.880;12.630;2023-08-06T05:49:45;17.21;81.20
74968;SHT30;63523;51.880;12.630;2023-08-06T05:52:11;17.22;81.56
74968;SHT30;63523;51.880;12.630;2023-08-06T05:54:36;17.21;81.78
74968;SHT30;63523;51.880;12.630;2023-08-06T05:57:02;17.22;82.11
74968;SHT30;63523;51.880;12.630;2023-08-06T05:59:27;17.21;81.99
74968;SHT30;63523;51.880;12.630;2023-08-06T06:01:52;17.19;82.25
74968;SHT30;63523;51.880;12.630;2023-08-06T06:04:18;17.15;82.70
74968;SHT30;63523;51.880;12.630;2023-08-06T06:06:43;17.19;82.51
74968;SHT30;63523;51.880;12.630;2023-08-06T06:09:09;17.19;82.41
74968;SHT30;63523;51.880;12.630;2023-08-06T06:11:35;17.25;82.71
74968;SHT30;63523;51.880;12.630;2023-08-06T06:14:00;17.28;82.41
74968;SHT30;63523;51.880;12.630;2023-08-06T06:16:26;17.29;82.59
74968;SHT30;63523;51.880;12.630;2023-08-06T06:18:51;17.32;82.27
74968;SHT30;63523;51.880;12.630;2023-08-06T06:21:16;17.34;82.25
74968;SHT30;63523;51.880;12.630;2023-08-06T06:23:42;17.38;82.18
74968;SHT30;63523;51.880;12.630;2023-08-06T06:26:07;17.40;82.37
74968;SHT30;63523;51.880;12.630;2023-08-06T06:28:33;17.46;82.29
74968;SHT30;63523;51.880;12.630;2023-08-06T06:31:01;17.53;82.00
74968;SHT30;63523;51.880;12.630;2023-08-06T06:33:27;17.53;81.44
74968;SHT30;63523;51.880;12.630;2023-08-06T06:35:52;17.55;81.78
74968;SHT30;63523;51.880;12.630;2023-08-06T06:38:18;17.62;81.73
74968;SHT30;63523;51.880;12.630;2023-08-06T06:40:43;17.66;81.64
74968;SHT30;63523;51.880;12.630;2023-08-06T06:43:08;17.72;80.95
74968;SHT30;63523;51.880;12.630;2023-08-06T06:45:33;17.76;80.89
74968;SHT30;63523;51.880;12.630;2023-08-06T06:47:59;17.82;80.60
74968;SHT30;63523;51.880;12.630;2023-08-06T06:50:24;17.94;79.92
74968;SHT30;63523;51.880;12.630;2023-08-06T06:52:51;17.89;79.95
74968;SHT30;63523;51.880;12.630;2023-08-06T06:55:16;17.94;80.01
74968;SHT30;63523;51.880;12.630;2023-08-06T06:57:41;17.98;80.09
74968;SHT30;63523;51.880;12.630;2023-08-06T07:00:07;18.04;80.31
74968;SHT30;63523;51.880;12.630;2023-08-06T07:02:32;18.05;79.87
74968;SHT30;63523;51.880;12.630;2023-08-06T07:04:58;18.07;80.30
74968;SHT30;63523;51.880;12.630;2023-08-06T07:07:23;18.14;80.25
74968;SHT30;63523;51.880;12.630;2023-08-06T07:09:48;18.21;79.97
74968;SHT30;63523;51.880;12.630;2023-08-06T07:12:14;18.24;79.81
74968;SHT30;63523;51.880;12.630;2023-08-06T07:14:39;18.25;79.56
74968;SHT30;63523;51.880;12.630;2023-08-06T07:17:05;18.19;79.09
74968;SHT30;63523;51.880;12.630;2023-08-06T07:19:30;18.19;79.76
74968;SHT30;63523;51.880;12.630;2023-08-06T07:21:55;18.22;80.01
74968;SHT30;63523;51.880;12.630;2023-08-06T07:24:21;18.29;79.55
74968;SHT30;63523;51.880;12.630;2023-08-06T07:26:46;18.36;79.93
74968;SHT30;63523;51.880;12.630;2023-08-06T07:29:12;18.42;79.60
74968;SHT30;63523;51.880;12.630;2023-08-06T07:31:37;18.41;79.27
74968;SHT30;63523;51.880;12.630;2023-08-06T07:34:02;18.44;78.92
74968;SHT30;63523;51.880;12.630;2023-08-06T07:36:28;18.51;78.83
74968;SHT30;63523;51.880;12.630;2023-08-06T07:38:53;18.46;79.06
74968;SHT30;63523;51.880;12.630;2023-08-06T07:41:21;18.49;79.03
74968;SHT30;63523;51.880;12.630;2023-08-06T07:43:46;18.51;79.05
74968;SHT30;63523;51.880;12.630;2023-08-06T07:46:12;18.53;79.34
74968;SHT30;63523;51.880;12.630;2023-08-06T07:48:38;18.60;79.29
74968;SHT30;63523;51.880;12.630;2023-08-06T07:51:03;18.57;78.74
74968;SHT30;63523;51.880;12.630;2023-08-06T07:53:29;18.55;78.50
74968;SHT30;63523;51.880;12.630;2023-08-06T07:55:54;18.51;78.44
74968;SHT30;63523;51.880;12.630;2023-08-06T07:58:20;18.46;78.18
74968;SHT30;63523;51.880;12.630;2023-08-06T08:00:46;18.46;78.74
74968;SHT30;63523;51.880;12.630;2023-08-06T08:03:12;18.46;79.51
74968;SHT30;63523;51.880;12.630;2023-08-06T08:05:41;18.51;79.40
74968;SHT30;63523;51.880;12.630;2023-08-06T08:08:06;18.53;79.76
74968;SHT30;63523;51.880;12.630;2023-08-06T08:10:33;18.53;80.07
74968;SHT30;63523;51.880;12.630;2023-08-06T08:12:58;18.59;79.25
74968;SHT30;63523;51.880;12.630;2023-08-06T08:15:24;18.67;78.97
74968;SHT30;63523;51.880;12.630;2023-08-06T08:17:51;18.70;78.35
74968;SHT30;63523;51.880;12.630;2023-08-06T08:20:17;18.74;78.41
74968;SHT30;63523;51.880;12.630;2023-08-06T08:22:43;18.76;78.89
74968;SHT30;63523;51.880;12.630;2023-08-06T08:25:08;18.80;77.93
74968;SHT30;63523;51.880;12.630;2023-08-06T08:27:33;18.83;78.43
74968;SHT30;63523;51.880;12.630;2023-08-06T08:29:59;18.89;78.14
74968;SHT30;63523;51.880;12.630;2023-08-06T08:32:24;18.94;78.20
74968;SHT30;63523;51.880;12.630;2023-08-06T08:34:49;18.97;78.52
74968;SHT30;63523;51.880;12.630;2023-08-06T08:37:15;19.03;78.73
74968;SHT30;63523;51.880;12.630;2023-08-06T08:39:40;19.03;78.64
74968;SHT30;63523;51.880;12.630;2023-08-06T08:42:06;19.01;79.04
74968;SHT30;63523;51.880;12.630;2023-08-06T08:44:32;19.07;78.58
74968;SHT30;63523;51.880;12.630;2023-08-06T08:46:59;19.06;79.75
74968;SHT30;63523;51.880;12.630;2023-08-06T08:49:26;19.14;80.07
74968;SHT30;63523;51.880;12.630;2023-08-06T08:51:53;19.18;80.00
74968;SHT30;63523;51.880;12.630;2023-08-06T08:54:23;19.19;79.26
74968;SHT30;63523;51.880;12.630;2023-08-06T08:56:48;19.24;78.93
74968;SHT30;63523;51.880;12.630;2023-08-06T08:59:13;19.25;79.57
74968;SHT30;63523;51.880;12.630;2023-08-06T09:01:40;19.34;78.96
74968;SHT30;63523;51.880;12.630;2023-08-06T09:04:06;19.39;78.27
74968;SHT30;63523;51.880;12.630;2023-08-06T09:06:37;19.48;79.13
74968;SHT30;63523;51.880;12.630;2023-08-06T09:09:12;19.51;78.14
74968;SHT30;63523;51.880;12.630;2023-08-06T09:11:44;19.55;78.26
74968;SHT30;63523;51.880;12.630;2023-08-06T09:14:11;19.63;77.68
74968;SHT30;63523;51.880;12.630;2023-08-06T09:16:37;19.67;77.72
74968;SHT30;63523;51.880;12.630;2023-08-06T09:19:13;19.76;77.49
74968;SHT30;63523;51.880;12.630;2023-08-06T09:21:41;19.83;77.11
74968;SHT30;63523;51.880;12.630;2023-08-06T09:24:13;19.91;76.61
74968;SHT30;63523;51.880;12.630;2023-08-06T09:26:43;19.94;76.18
74968;SHT30;63523;51.880;12.630;2023-08-06T09:29:09;20.06;76.78
74968;SHT30;63523;51.880;12.630;2023-08-06T09:31:49;19.98;75.28
74968;SHT30;63523;51.880;12.630;2023-08-06T09:34:20;20.06;76.01
74968;SHT30;63523;51.880;12.630;2023-08-06T09:36:51;20.06;74.72
74968;SHT30;63523;51.880;12.630;2023-08-06T09:39:18;20.08;76.06
74968;SHT30;63523;51.880;12.630;2023-08-06T09:41:45;20.11;75.46
74968;SHT30;63523;51.880;12.630;2023-08-06T09:44:19;20.11;75.30
74968;SHT30;63523;51.880;12.630;2023-08-06T09:46:48;20.13;74.84
74968;SHT30;63523;51.880;12.630;2023-08-06T09:49:15;20.04;74.12
74968;SHT30;63523;51.880;12.630;2023-08-06T09:51:41;20.03;73.92
74968;SHT30;63523;51.880;12.630;2023-08-06T09:54:06;20.04;73.68
74968;SHT30;63523;51.880;12.630;2023-08-06T09:56:36;20.10;74.22
74968;SHT30;63523;51.880;12.630;2023-08-06T09:59:04;20.11;73.56
74968;SHT30;63523;51.880;12.630;2023-08-06T10:01:32;20.18;74.43
74968;SHT30;63523;51.880;12.630;2023-08-06T10:03:59;20.28;73.93
74968;SHT30;63523;51.880;12.630;2023-08-06T10:06:26;20.29;74.65
74968;SHT30;63523;51.880;12.630;2023-08-06T10:08:51;20.22;73.75
74968;SHT30;63523;51.880;12.630;2023-08-06T10:11:17;20.35;75.18
74968;SHT30;63523;51.880;12.630;2023-08-06T10:13:43;20.52;74.65
74968;SHT30;63523;51.880;12.630;2023-08-06T10:16:09;20.56;74.19
74968;SHT30;63523;51.880;12.630;2023-08-06T10:18:36;20.53;73.24
74968;SHT30;63523;51.880;12.630;2023-08-06T10:21:07;20.51;73.68
74968;SHT30;63523;51.880;12.630;2023-08-06T10:23:34;20.55;73.20
74968;SHT30;63523;51.880;12.630;2023-08-06T10:26:00;20.48;72.85
74968;SHT30;63523;51.880;12.630;2023-08-06T10:28:37;20.49;72.99
74968;SHT30;63523;51.880;12.630;2023-08-06T10:31:02;20.41;73.21
74968;SHT30;63523;51.880;12.630;2023-08-06T10:33:44;20.38;73.30
74968;SHT30;63523;51.880;12.630;2023-08-06T10:36:10;20.29;72.78
74968;SHT30;63523;51.880;12.630;2023-08-06T10:38:44;20.14;73.60
74968;SHT30;63523;51.880;12.630;2023-08-06T10:41:35;20.13;72.86
74968;SHT30;63523;51.880;12.630;2023-08-06T10:44:07;20.18;73.88
74968;SHT30;63523;51.880;12.630;2023-08-06T10:46:36;20.14;73.03
74968;SHT30;63523;51.880;12.630;2023-08-06T10:49:02;20.10;72.53
74968;SHT30;63523;51.880;12.630;2023-08-06T10:51:28;20.17;73.49
74968;SHT30;63523;51.880;12.630;2023-08-06T10:53:54;20.13;72.47
74968;SHT30;63523;51.880;12.630;2023-08-06T10:56:21;20.15;72.04
74968;SHT30;63523;51.880;12.630;2023-08-06T10:58:53;20.14;72.43
74968;SHT30;63523;51.880;12.630;2023-08-06T11:01:18;20.20;72.42
74968;SHT30;63523;51.880;12.630;2023-08-06T11:03:46;20.26;73.30
74968;SHT30;63523;51.880;12.630;2023-08-06T11:06:17;20.32;72.28
74968;SHT30;63523;51.880;12.630;2023-08-06T11:08:48;20.45;72.45
74968;SHT30;63523;51.880;12.630;2023-08-06T11:11:14;20.59;73.47
74968;SHT30;63523;51.880;12.630;2023-08-06T11:13:43;20.73;71.02
74968;SHT30;63523;51.880;12.630;2023-08-06T11:16:12;20.66;70.57
74968;SHT30;63523;51.880;12.630;2023-08-06T11:18:39;20.73;71.07
74968;SHT30;63523;51.880;12.630;2023-08-06T11:21:04;20.83;71.38
74968;SHT30;63523;51.880;12.630;2023-08-06T11:23:30;20.84;69.19
74968;SHT30;63523;51.880;12.630;2023-08-06T11:25:58;20.90;70.03
74968;SHT30;63523;51.880;12.630;2023-08-06T11:28:24;21.01;68.84
74968;SHT30;63523;51.880;12.630;2023-08-06T11:30:50;21.10;68.92
74968;SHT30;63523;51.880;12.630;2023-08-06T11:33:24;21.08;68.22
74968;SHT30;63523;51.880;12.630;2023-08-06T11:35:57;21.10;68.20
74968;SHT30;63523;51.880;12.630;2023-08-06T11:38:28;21.28;68.33
74968;SHT30;63523;51.880;12.630;2023-08-06T11:40:54;21.30;68.12
74968;SHT30;63523;51.880;12.630;2023-08-06T11:43:20;21.49;67.98
74968;SHT30;63523;51.880;12.630;2023-08-06T11:45:50;21.67;66.87
74968;SHT30;63523;51.880;12.630;2023-08-06T11:48:17;21.78;66.29
74968;SHT30;63523;51.880;12.630;2023-08-06T11:50:43;21.93;66.00
74968;SHT30;63523;51.880;12.630;2023-08-06T11:53:12;22.00;65.15
74968;SHT30;63523;51.880;12.630;2023-08-06T11:55:38;22.10;66.13
74968;SHT30;63523;51.880;12.630;2023-08-06T11:58:04;22.22;64.54
74968;SHT30;63523;51.880;12.630;2023-08-06T12:00:30;22.37;63.99
74968;SHT30;63523;51.880;12.630;2023-08-06T12:02:56;22.27;62.28
74968;SHT30;63523;51.880;12.630;2023-08-06T12:05:29;22.25;63.85
74968;SHT30;63523;51.880;12.630;2023-08-06T12:07:56;22.22;62.33
74968;SHT30;63523;51.880;12.630;2023-08-06T12:10:23;22.14;62.06
74968;SHT30;63523;51.880;12.630;2023-08-06T12:12:49;22.14;62.50
74968;SHT30;63523;51.880;12.630;2023-08-06T12:15:15;22.49;64.66
74968;SHT30;63523;51.880;12.630;2023-08-06T12:17:40;22.60;60.53
74968;SHT30;63523;51.880;12.630;2023-08-06T12:20:06;22.63;63.05
74968;SHT30;63523;51.880;12.630;2023-08-06T12:22:33;22.80;60.72
74968;SHT30;63523;51.880;12.630;2023-08-06T12:25:03;22.77;62.07
74968;SHT30;63523;51.880;12.630;2023-08-06T12:27:32;22.97;60.18
74968;SHT30;63523;51.880;12.630;2023-08-06T12:29:57;23.00;61.45
74968;SHT30;63523;51.880;12.630;2023-08-06T12:32:22;22.82;60.38
74968;SHT30;63523;51.880;12.630;2023-08-06T12:34:48;22.75;61.61
74968;SHT30;63523;51.880;12.630;2023-08-06T12:37:13;22.79;62.24
74968;SHT30;63523;51.880;12.630;2023-08-06T12:39:38;22.87;60.94
74968;SHT30;63523;51.880;12.630;2023-08-06T12:42:05;22.69;62.40
74968;SHT30;63523;51.880;12.630;2023-08-06T12:44:31;22.72;61.48
74968;SHT30;63523;51.880;12.630;2023-08-06T12:46:57;22.79;61.46
74968;SHT30;63523;51.880;12.630;2023-08-06T12:49:23;22.56;60.78
74968;SHT30;63523;51.880;12.630;2023-08-06T12:51:50;22.35;62.12
74968;SHT30;63523;51.880;12.630;2023-08-06T12:54:19;22.51;61.61
74968;SHT30;63523;51.880;12.630;2023-08-06T12:56:46;22.73;60.51
74968;SHT30;63523;51.880;12.630;2023-08-06T12:59:13;22.69;59.57
74968;SHT30;63523;51.880;12.630;2023-08-06T13:01:39;22.72;59.32
74968;SHT30;63523;51.880;12.630;2023-08-06T13:04:04;22.72;60.50
74968;SHT30;63523;51.880;12.630;2023-08-06T13:06:30;22.72;59.41
74968;SHT30;63523;51.880;12.630;2023-08-06T13:08:56;22.73;60.08
74968;SHT30;63523;51.880;12.630;2023-08-06T13:11:22;22.75;61.39
74968;SHT30;63523;51.880;12.630;2023-08-06T13:13:47;22.69;62.86
74968;SHT30;63523;51.880;12.630;2023-08-06T13:16:12;22.58;63.63
74968;SHT30;63523;51.880;12.630;2023-08-06T13:18:38;22.37;62.67
74968;SHT30;63523;51.880;12.630;2023-08-06T13:21:03;22.17;64.52
74968;SHT30;63523;51.880;12.630;2023-08-06T13:23:28;22.06;64.17
74968;SHT30;63523;51.880;12.630;2023-08-06T13:25:54;21.80;65.11
74968;SHT30;63523;51.880;12.630;2023-08-06T13:28:19;21.39;66.22
74968;SHT30;63523;51.880;12.630;2023-08-06T13:30:45;21.01;67.39
74968;SHT30;63523;51.880;12.630;2023-08-06T13:33:11;20.68;68.60
74968;SHT30;63523;51.880;12.630;2023-08-06T13:35:36;20.39;69.80
74968;SHT30;63523;51.880;12.630;2023-08-06T13:38:02;20.28;72.09
74968;SHT30;63523;51.880;12.630;2023-08-06T13:40:32;20.29;70.33
74968;SHT30;63523;51.880;12.630;2023-08-06T13:42:57;20.35;68.47
74968;SHT30;63523;51.880;12.630;2023-08-06T13:45:23;20.34;69.32
74968;SHT30;63523;51.880;12.630;2023-08-06T13:47:48;20.34;70.57
74968;SHT30;63523;51.880;12.630;2023-08-06T13:50:14;20.32;69.37
74968;SHT30;63523;51.880;12.630;2023-08-06T13:52:39;20.24;69.21
74968;SHT30;63523;51.880;12.630;2023-08-06T13:55:06;20.25;69.01
74968;SHT30;63523;51.880;12.630;2023-08-06T13:57:32;20.26;67.42
74968;SHT30;63523;51.880;12.630;2023-08-06T13:59:57;20.26;67.29
74968;SHT30;63523;51.880;12.630;2023-08-06T14:02:22;20.22;67.79
74968;SHT30;63523;51.880;12.630;2023-08-06T14:04:48;20.25;67.06
74968;SHT30;63523;51.880;12.630;2023-08-06T14:07:13;20.21;68.19
74968;SHT30;63523;51.880;12.630;2023-08-06T14:09:38;20.15;69.25
74968;SHT30;63523;51.880;12.630;2023-08-06T14:12:05;20.26;68.89
74968;SHT30;63523;51.880;12.630;2023-08-06T14:14:31;20.34;68.81
74968;SHT30;63523;51.880;12.630;2023-08-06T14:16:56;20.42;68.45
74968;SHT30;63523;51.880;12.630;2023-08-06T14:19:21;20.48;67.79
74968;SHT30;63523;51.880;12.630;2023-08-06T14:21:47;20.61;68.29
74968;SHT30;63523;51.880;12.630;2023-08-06T14:24:12;20.63;67.79
74968;SHT30;63523;51.880;12.630;2023-08-06T14:26:38;20.68;67.59
74968;SHT30;63523;51.880;12.630;2023-08-06T14:29:03;20.62;69.69
74968;SHT30;63523;51.880;12.630;2023-08-06T14:31:28;20.57;70.10
74968;SHT30;63523;51.880;12.630;2023-08-06T14:33:54;20.57;69.41
74968;SHT30;63523;51.880;12.630;2023-08-06T14:36:19;20.59;69.78
74968;SHT30;63523;51.880;12.630;2023-08-06T14:38:45;20.61;70.21
74968;SHT30;63523;51.880;12.630;2023-08-06T14:41:10;20.61;70.88
74968;SHT30;63523;51.880;12.630;2023-08-06T14:43:36;20.63;70.74
74968;SHT30;63523;51.880;12.630;2023-08-06T14:46:01;20.53;71.19
74968;SHT30;63523;51.880;12.630;2023-08-06T14:48:26;20.46;71.45
74968;SHT30;63523;51.880;12.630;2023-08-06T14:50:52;20.35;72.18
74968;SHT30;63523;51.880;12.630;2023-08-06T14:53:17;20.32;72.35
74968;SHT30;63523;51.880;12.630;2023-08-06T14:55:43;20.34;72.13
74968;SHT30;63523;51.880;12.630;2023-08-06T14:58:08;20.41;71.86
74968;SHT30;63523;51.880;12.630;2023-08-06T15:00:33;20.42;71.44
74968;SHT30;63523;51.880;12.630;2023-08-06T15:02:59;20.45;69.86
74968;SHT30;63523;51.880;12.630;2023-08-06T15:05:25;20.44;70.25
74968;SHT30;63523;51.880;12.630;2023-08-06T15:07:50;20.39;70.50
74968;SHT30;63523;51.880;12.630;2023-08-06T15:10:18;20.38;70.89
74968;SHT30;63523;51.880;12.630;2023-08-06T15:12:43;20.36;70.56
74968;SHT30;63523;51.880;12.630;2023-08-06T15:15:09;20.42;71.34
74968;SHT30;63523;51.880;12.630;2023-08-06T15:17:34;20.48;69.06